sensor_id;sensor_type;location;lat;lon;timestamp;pressure;altitude;pressure_sealevel;temperature;humidity
60089;BME280;45961;53.574;55.878;2022-08-20T00:01:00;101434.66;;;9.39;70.48
60089;BME280;45961;53.574;55.878;2022-08-20T00:02:01;101436.50;;;9.44;70.78
60089;BME280;45961;53.574;55.878;2022-08-20T00:03:06;101432.22;;;9.44;70.47
60089;BME280;45961;53.574;55.878;2022-08-20T00:04:07;101432.28;;;9.46;70.41
60089;BME280;45961;53.574;55.878;2022-08-20T00:05:09;101430.59;;;9.48;70.32
60089;BME280;45961;53.574;55.878;2022-08-20T00:06:17;101434.00;;;9.45;70.18
60089;BME280;45961;53.574;55.878;2022-08-20T00:07:18;101437.31;;;9.41;70.13
60089;BME280;45961;53.574;55.878;2022-08-20T00:08:20;101438.22;;;9.43;70.49
60089;BME280;45961;53.574;55.878;2022-08-20T00:09:21;101441.63;;;9.42;70.72
60089;BME280;45961;53.574;55.878;2022-08-20T00:10:22;101441.63;;;9.42;70.93
60089;BME280;45961;53.574;55.878;2022-08-20T00:11:25;101434.00;;;9.45;70.99
60089;BME280;45961;53.574;55.878;2022-08-20T00:12:26;101440.94;;;9.48;70.81
60089;BME280;45961;53.574;55.878;2022-08-20T00:13:31;101441.66;;;9.44;70.73
60089;BME280;45961;53.574;55.878;2022-08-20T00:14:33;101438.91;;;9.37;70.73
60089;BME280;45961;53.574;55.878;2022-08-20T00:15:37;101438.06;;;9.38;70.70
60089;BME280;45961;53.574;55.878;2022-08-20T00:16:39;101434.50;;;9.35;70.94
60089;BME280;45961;53.574;55.878;2022-08-20T00:17:40;101445.66;;;9.34;70.84
60089;BME280;45961;53.574;55.878;2022-08-20T00:18:41;101447.16;;;9.27;70.61
60089;BME280;45961;53.574;55.878;2022-08-20T00:19:43;101437.63;;;9.25;70.57
60089;BME280;45961;53.574;55.878;2022-08-20T00:20:46;101441.06;;;9.25;70.56
60089;BME280;45961;53.574;55.878;2022-08-20T00:21:48;101433.09;;;9.19;70.69
60089;BME280;45961;53.574;55.878;2022-08-20T00:22:48;101441.00;;;9.24;70.83
60089;BME280;45961;53.574;55.878;2022-08-20T00:23:52;101437.69;;;9.28;70.71
60089;BME280;45961;53.574;55.878;2022-08-20T00:24:53;101432.44;;;9.25;70.71
60089;BME280;45961;53.574;55.878;2022-08-20T00:25:54;101437.53;;;9.23;70.62
60089;BME280;45961;53.574;55.878;2022-08-20T00:26:55;101443.31;;;9.16;70.87
60089;BME280;45961;53.574;55.878;2022-08-20T00:27:57;101447.47;;;9.11;70.94
60089;BME280;45961;53.574;55.878;2022-08-20T00:28:58;101437.88;;;9.08;70.93
60089;BME280;45961;53.574;55.878;2022-08-20T00:29:59;101446.59;;;9.10;70.95
60089;BME280;45961;53.574;55.878;2022-08-20T00:31:02;101437.56;;;8.99;71.22
60089;BME280;45961;53.574;55.878;2022-08-20T00:32:04;101443.31;;;8.90;71.34
60089;BME280;45961;53.574;55.878;2022-08-20T00:33:12;101438.91;;;8.88;71.28
60089;BME280;45961;53.574;55.878;2022-08-20T00:34:13;101442.19;;;8.84;71.55
60089;BME280;45961;53.574;55.878;2022-08-20T00:35:31;101445.75;;;8.87;71.71
60089;BME280;45961;53.574;55.878;2022-08-20T00:36:33;101446.59;;;8.86;71.83
60089;BME280;45961;53.574;55.878;2022-08-20T00:37:34;101449.84;;;8.81;71.83
60089;BME280;45961;53.574;55.878;2022-08-20T00:38:37;101455.66;;;8.75;71.76
60089;BME280;45961;53.574;55.878;2022-08-20T00:39:38;101451.44;;;8.77;71.64
60089;BME280;45961;53.574;55.878;2022-08-20T00:40:46;101462.56;;;8.76;71.66
60089;BME280;45961;53.574;55.878;2022-08-20T00:41:47;101452.03;;;8.70;71.64
60089;BME280;45961;53.574;55.878;2022-08-20T00:42:55;101453.16;;;8.77;71.59
60089;BME280;45961;53.574;55.878;2022-08-20T00:45:07;101460.91;;;8.77;72.07
60089;BME280;45961;53.574;55.878;2022-08-20T00:46:13;101431.69;;;8.55;71.80
60089;BME280;45961;53.574;55.878;2022-08-20T00:47:14;101458.91;;;8.70;71.84
60089;BME280;45961;53.574;55.878;2022-08-20T00:48:15;101459.66;;;8.67;71.69
60089;BME280;45961;53.574;55.878;2022-08-20T00:49:24;101447.31;;;8.58;71.97
60089;BME280;45961;53.574;55.878;2022-08-20T00:50:33;101460.97;;;8.56;71.97
60089;BME280;45961;53.574;55.878;2022-08-20T00:51:44;101466.75;;;8.49;72.20
60089;BME280;45961;53.574;55.878;2022-08-20T00:52:49;101463.38;;;8.51;72.02
60089;BME280;45961;53.574;55.878;2022-08-20T00:53:50;101466.63;;;8.46;72.28
60089;BME280;45961;53.574;55.878;2022-08-20T00:54:56;101460.41;;;8.40;72.42
60089;BME280;45961;53.574;55.878;2022-08-20T00:55:58;101458.00;;;8.45;72.73
60089;BME280;45961;53.574;55.878;2022-08-20T00:57:04;101466.94;;;8.55;72.80
60089;BME280;45961;53.574;55.878;2022-08-20T00:58:07;101467.75;;;8.52;72.88
60089;BME280;45961;53.574;55.878;2022-08-20T00:59:15;101472.13;;;8.55;73.00
60089;BME280;45961;53.574;55.878;2022-08-20T01:00:22;101470.19;;;8.49;72.81
60089;BME280;45961;53.574;55.878;2022-08-20T01:01:24;101468.19;;;8.42;72.67
60089;BME280;45961;53.574;55.878;2022-08-20T01:02:26;101469.06;;;8.43;72.52
60089;BME280;45961;53.574;55.878;2022-08-20T01:03:28;101467.44;;;8.45;72.78
60089;BME280;45961;53.574;55.878;2022-08-20T01:04:32;101462.91;;;8.39;73.06
60089;BME280;45961;53.574;55.878;2022-08-20T01:05:35;101468.25;;;8.44;72.91
60089;BME280;45961;53.574;55.878;2022-08-20T01:06:39;101467.00;;;8.34;73.01
60089;BME280;45961;53.574;55.878;2022-08-20T01:07:42;101473.78;;;8.32;72.75
60089;BME280;45961;53.574;55.878;2022-08-20T01:08:44;101472.91;;;8.31;72.83
60089;BME280;45961;53.574;55.878;2022-08-20T01:09:46;101478.91;;;8.30;72.81
60089;BME280;45961;53.574;55.878;2022-08-20T01:10:48;101475.66;;;8.36;73.23
60089;BME280;45961;53.574;55.878;2022-08-20T01:11:53;101477.53;;;8.38;73.19
60089;BME280;45961;53.574;55.878;2022-08-20T01:12:55;101474.19;;;8.41;73.21
60089;BME280;45961;53.574;55.878;2022-08-20T01:13:57;101469.06;;;8.43;73.18
60089;BME280;45961;53.574;55.878;2022-08-20T01:15:00;101478.41;;;8.39;73.11
60089;BME280;45961;53.574;55.878;2022-08-20T01:16:03;101477.66;;;8.42;73.32
60089;BME280;45961;53.574;55.878;2022-08-20T01:17:12;101471.81;;;8.47;73.50
60089;BME280;45961;53.574;55.878;2022-08-20T01:18:23;101475.19;;;8.45;73.41
60089;BME280;45961;53.574;55.878;2022-08-20T01:19:38;101475.19;;;8.45;73.53
60089;BME280;45961;53.574;55.878;2022-08-20T01:20:43;101447.06;;;8.30;73.26
60089;BME280;45961;53.574;55.878;2022-08-20T01:21:46;101474.47;;;8.49;73.02
60089;BME280;45961;53.574;55.878;2022-08-20T01:24:37;101483.03;;;8.48;73.16
60089;BME280;45961;53.574;55.878;2022-08-20T01:26:30;101481.41;;;8.50;73.12
60089;BME280;45961;53.574;55.878;2022-08-20T01:27:05;101477.94;;;8.49;73.41
60089;BME280;45961;53.574;55.878;2022-08-20T01:28:09;101483.22;;;8.52;73.20
60089;BME280;45961;53.574;55.878;2022-08-20T01:29:19;101484.19;;;8.56;72.76
60089;BME280;45961;53.574;55.878;2022-08-20T01:30:25;101482.53;;;8.56;73.16
60089;BME280;45961;53.574;55.878;2022-08-20T01:31:30;101480.03;;;8.59;73.09
60089;BME280;45961;53.574;55.878;2022-08-20T01:32:32;101477.53;;;8.61;72.95
60089;BME280;45961;53.574;55.878;2022-08-20T01:33:34;101473.41;;;8.66;72.65
60089;BME280;45961;53.574;55.878;2022-08-20T01:34:35;101472.69;;;8.70;72.53
60089;BME280;45961;53.574;55.878;2022-08-20T01:35:40;101471.75;;;8.68;72.34
60089;BME280;45961;53.574;55.878;2022-08-20T01:36:53;101465.88;;;8.72;72.22
60089;BME280;45961;53.574;55.878;2022-08-20T01:37:55;101471.25;;;8.78;72.12
60089;BME280;45961;53.574;55.878;2022-08-20T01:38:57;101494.50;;;8.78;72.48
60089;BME280;45961;53.574;55.878;2022-08-20T01:39:59;101469.50;;;8.77;72.47
60089;BME280;45961;53.574;55.878;2022-08-20T01:42:40;101471.59;;;8.87;72.75
60089;BME280;45961;53.574;55.878;2022-08-20T01:43:44;101470.78;;;8.88;73.05
60089;BME280;45961;53.574;55.878;2022-08-20T01:44:46;101468.97;;;8.86;72.89
60089;BME280;45961;53.574;55.878;2022-08-20T01:45:47;101470.00;;;8.91;72.89
60089;BME280;45961;53.574;55.878;2022-08-20T01:46:49;101477.00;;;8.94;72.90
60089;BME280;45961;53.574;55.878;2022-08-20T01:47:50;101466.69;;;8.95;73.04
60089;BME280;45961;53.574;55.878;2022-08-20T01:48:52;101476.03;;;8.92;73.09
60089;BME280;45961;53.574;55.878;2022-08-20T01:49:58;101479.44;;;8.90;72.92
60089;BME280;45961;53.574;55.878;2022-08-20T01:51:11;101472.53;;;8.89;72.64
60089;BME280;45961;53.574;55.878;2022-08-20T01:52:54;101470.88;;;8.92;73.08
60089;BME280;45961;53.574;55.878;2022-08-20T01:53:49;101470.81;;;9.39;72.11
60089;BME280;45961;53.574;55.878;2022-08-20T01:54:50;101471.66;;;10.18;70.57
60089;BME280;45961;53.574;55.878;2022-08-20T01:55:52;101470.09;;;10.82;68.54
60089;BME280;45961;53.574;55.878;2022-08-20T01:57:00;101469.78;;;11.34;66.40
60089;BME280;45961;53.574;55.878;2022-08-20T01:58:02;101469.44;;;11.89;65.09
60089;BME280;45961;53.574;55.878;2022-08-20T01:59:05;101471.28;;;12.32;63.61
60089;BME280;45961;53.574;55.878;2022-08-20T02:00:12;101472.31;;;12.81;61.75
60089;BME280;45961;53.574;55.878;2022-08-20T02:02:25;101461.94;;;13.78;59.08
60089;BME280;45961;53.574;55.878;2022-08-20T02:03:26;101467.00;;;14.26;57.57
60089;BME280;45961;53.574;55.878;2022-08-20T02:04:27;101461.44;;;14.61;55.79
60089;BME280;45961;53.574;55.878;2022-08-20T02:05:30;101455.88;;;15.10;54.90
60089;BME280;45961;53.574;55.878;2022-08-20T02:06:37;101463.19;;;15.44;53.68
60089;BME280;45961;53.574;55.878;2022-08-20T02:07:38;101464.47;;;15.94;52.94
60089;BME280;45961;53.574;55.878;2022-08-20T02:08:40;101460.31;;;16.23;52.04
60089;BME280;45961;53.574;55.878;2022-08-20T02:09:43;101462.22;;;16.55;50.36
60089;BME280;45961;53.574;55.878;2022-08-20T02:10:45;101460.56;;;16.75;49.45
60089;BME280;45961;53.574;55.878;2022-08-20T02:11:47;101459.81;;;17.12;48.82
60089;BME280;45961;53.574;55.878;2022-08-20T02:12:48;101453.75;;;17.51;48.22
60089;BME280;45961;53.574;55.878;2022-08-20T02:13:51;101457.25;;;17.73;47.04
60089;BME280;45961;53.574;55.878;2022-08-20T02:14:53;101453.66;;;18.34;46.35
60089;BME280;45961;53.574;55.878;2022-08-20T02:15:54;101451.78;;;18.72;45.21
60089;BME280;45961;53.574;55.878;2022-08-20T02:16:56;101449.06;;;18.91;44.63
60089;BME280;45961;53.574;55.878;2022-08-20T02:17:58;101456.72;;;19.24;43.53
60089;BME280;45961;53.574;55.878;2022-08-20T02:19:04;101453.16;;;19.33;43.29
60089;BME280;45961;53.574;55.878;2022-08-20T02:20:13;101450.59;;;19.24;43.69
60089;BME280;45961;53.574;55.878;2022-08-20T02:21:15;101453.09;;;19.41;43.97
60089;BME280;45961;53.574;55.878;2022-08-20T02:22:41;101457.66;;;19.19;44.18
60089;BME280;45961;53.574;55.878;2022-08-20T02:23:44;101456.88;;;19.03;44.72
60089;BME280;45961;53.574;55.878;2022-08-20T02:24:45;101459.53;;;18.95;44.42
60089;BME280;45961;53.574;55.878;2022-08-20T02:25:47;101433.38;;;18.83;44.00
60089;BME280;45961;53.574;55.878;2022-08-20T02:26:49;101448.25;;;18.83;44.97
60089;BME280;45961;53.574;55.878;2022-08-20T02:27:51;101449.06;;;18.94;44.71
60089;BME280;45961;53.574;55.878;2022-08-20T02:28:53;101457.69;;;19.14;44.31
60089;BME280;45961;53.574;55.878;2022-08-20T02:29:55;101454.00;;;19.40;44.27
60089;BME280;45961;53.574;55.878;2022-08-20T02:30:56;101447.94;;;19.32;43.75
60089;BME280;45961;53.574;55.878;2022-08-20T02:31:57;101455.25;;;18.68;44.24
60089;BME280;45961;53.574;55.878;2022-08-20T02:33:00;101454.44;;;18.59;44.64
60089;BME280;45961;53.574;55.878;2022-08-20T02:34:04;101455.28;;;18.73;44.46
60089;BME280;45961;53.574;55.878;2022-08-20T02:35:09;101453.53;;;18.61;44.53
60089;BME280;45961;53.574;55.878;2022-08-20T02:36:13;101453.47;;;18.86;44.61
60089;BME280;45961;53.574;55.878;2022-08-20T02:37:15;101449.16;;;18.66;44.71
60089;BME280;45961;53.574;55.878;2022-08-20T02:38:18;101453.56;;;18.70;44.70
60089;BME280;45961;53.574;55.878;2022-08-20T02:39:19;101458.00;;;18.45;45.18
60089;BME280;45961;53.574;55.878;2022-08-20T02:40:22;101450.91;;;18.67;44.92
60089;BME280;45961;53.574;55.878;2022-08-20T02:41:25;101450.03;;;18.74;44.80
60089;BME280;45961;53.574;55.878;2022-08-20T02:42:27;101444.78;;;18.74;44.46
60089;BME280;45961;53.574;55.878;2022-08-20T02:43:28;101452.69;;;18.62;44.49
60089;BME280;45961;53.574;55.878;2022-08-20T02:44:30;101450.13;;;18.50;45.27
60089;BME280;45961;53.574;55.878;2022-08-20T02:45:33;101450.06;;;18.70;45.27
60089;BME280;45961;53.574;55.878;2022-08-20T02:46:39;101457.94;;;18.70;45.07
60089;BME280;45961;53.574;55.878;2022-08-20T02:47:42;101457.09;;;18.54;45.20
60089;BME280;45961;53.574;55.878;2022-08-20T02:48:45;101458.81;;;18.57;45.05
60089;BME280;45961;53.574;55.878;2022-08-20T02:49:46;101460.66;;;18.30;45.38
60089;BME280;45961;53.574;55.878;2022-08-20T02:50:58;101458.91;;;18.35;45.26
60089;BME280;45961;53.574;55.878;2022-08-20T02:52:01;101459.72;;;18.49;45.00
60089;BME280;45961;53.574;55.878;2022-08-20T02:53:02;101456.28;;;18.38;45.59
60089;BME280;45961;53.574;55.878;2022-08-20T02:54:03;101464.13;;;18.38;45.48
60089;BME280;45961;53.574;55.878;2022-08-20T02:55:05;101460.69;;;18.22;45.42
60089;BME280;45961;53.574;55.878;2022-08-20T02:56:07;101460.69;;;18.12;46.05
60089;BME280;45961;53.574;55.878;2022-08-20T02:57:13;101458.94;;;18.23;46.10
60089;BME280;45961;53.574;55.878;2022-08-20T02:58:15;101453.72;;;18.18;46.47
60089;BME280;45961;53.574;55.878;2022-08-20T02:59:16;101458.09;;;18.18;46.28
60089;BME280;45961;53.574;55.878;2022-08-20T03:00:21;101453.69;;;18.29;45.71
60089;BME280;45961;53.574;55.878;2022-08-20T03:01:22;101455.44;;;18.25;46.07
60089;BME280;45961;53.574;55.878;2022-08-20T03:02:23;101457.16;;;18.28;46.49
60089;BME280;45961;53.574;55.878;2022-08-20T03:03:24;101472.00;;;18.38;46.28
60089;BME280;45961;53.574;55.878;2022-08-20T03:04:25;101452.81;;;18.16;46.72
60089;BME280;45961;53.574;55.878;2022-08-20T03:05:26;101439.69;;;18.27;46.43
60089;BME280;45961;53.574;55.878;2022-08-20T03:06:28;101450.97;;;18.52;45.08
60089;BME280;45961;53.574;55.878;2022-08-20T03:07:30;101449.19;;;18.59;45.36
60089;BME280;45961;53.574;55.878;2022-08-20T03:08:31;101450.03;;;18.71;45.38
60089;BME280;45961;53.574;55.878;2022-08-20T03:09:33;101449.13;;;18.83;45.34
60089;BME280;45961;53.574;55.878;2022-08-20T03:10:39;101447.41;;;18.68;45.46
60089;BME280;45961;53.574;55.878;2022-08-20T03:11:40;101445.69;;;18.70;45.47
60089;BME280;45961;53.574;55.878;2022-08-20T03:12:41;101440.50;;;18.54;46.04
60089;BME280;45961;53.574;55.878;2022-08-20T03:13:42;101436.06;;;18.69;46.90
60089;BME280;45961;53.574;55.878;2022-08-20T03:14:43;101444.81;;;18.65;46.53
60089;BME280;45961;53.574;55.878;2022-08-20T03:15:51;101443.03;;;18.64;46.25
60089;BME280;45961;53.574;55.878;2022-08-20T03:16:53;101444.84;;;18.55;46.34
60089;BME280;45961;53.574;55.878;2022-08-20T03:17:54;101450.19;;;18.25;46.78
60089;BME280;45961;53.574;55.878;2022-08-20T03:18:55;101442.31;;;18.21;47.71
60089;BME280;45961;53.574;55.878;2022-08-20T03:19:56;101450.25;;;18.01;48.09
60089;BME280;45961;53.574;55.878;2022-08-20T03:20:57;101441.47;;;18.19;47.99
60089;BME280;45961;53.574;55.878;2022-08-20T03:21:58;101445.00;;;17.92;48.15
60089;BME280;45961;53.574;55.878;2022-08-20T03:23:00;101441.53;;;18.05;48.49
60089;BME280;45961;53.574;55.878;2022-08-20T03:24:01;101443.28;;;17.83;48.65
60089;BME280;45961;53.574;55.878;2022-08-20T03:25:03;101445.03;;;17.73;49.10
60089;BME280;45961;53.574;55.878;2022-08-20T03:26:06;101448.50;;;17.48;49.22
60089;BME280;45961;53.574;55.878;2022-08-20T03:27:08;101439.78;;;17.61;49.41
60089;BME280;45961;53.574;55.878;2022-08-20T03:28:09;101445.88;;;17.63;48.98
60089;BME280;45961;53.574;55.878;2022-08-20T03:29:10;101447.66;;;17.87;48.84
60089;BME280;45961;53.574;55.878;2022-08-20T03:30:12;101448.50;;;18.03;48.95
60089;BME280;45961;53.574;55.878;2022-08-20T03:31:13;101446.75;;;17.96;49.15
60089;BME280;45961;53.574;55.878;2022-08-20T03:32:15;101442.38;;;18.10;48.73
60089;BME280;45961;53.574;55.878;2022-08-20T03:33:16;101439.72;;;18.25;49.06
60089;BME280;45961;53.574;55.878;2022-08-20T03:34:19;101443.19;;;18.31;48.76
60089;BME280;45961;53.574;55.878;2022-08-20T03:35:24;101444.00;;;18.49;48.43
60089;BME280;45961;53.574;55.878;2022-08-20T03:36:27;101441.38;;;18.51;47.91
60089;BME280;45961;53.574;55.878;2022-08-20T03:37:30;101445.75;;;18.47;48.05
60089;BME280;45961;53.574;55.878;2022-08-20T03:38:38;101445.75;;;18.47;47.89
60089;BME280;45961;53.574;55.878;2022-08-20T03:39:39;101452.75;;;18.45;47.68
60089;BME280;45961;53.574;55.878;2022-08-20T03:40:40;101452.75;;;18.50;48.08
60089;BME280;45961;53.574;55.878;2022-08-20T03:41:42;101453.59;;;18.55;48.51
60089;BME280;45961;53.574;55.878;2022-08-20T03:42:43;101454.44;;;18.62;47.73
60089;BME280;45961;53.574;55.878;2022-08-20T03:43:44;101439.53;;;18.67;47.50
60089;BME280;45961;53.574;55.878;2022-08-20T03:44:45;101452.69;;;18.53;47.17
60089;BME280;45961;53.574;55.878;2022-08-20T03:45:48;101454.47;;;18.45;47.52
60089;BME280;45961;53.574;55.878;2022-08-20T03:46:49;101448.38;;;18.40;47.51
60089;BME280;45961;53.574;55.878;2022-08-20T03:47:50;101452.72;;;18.52;47.74
60089;BME280;45961;53.574;55.878;2022-08-20T03:48:53;101452.72;;;18.58;48.41
60089;BME280;45961;53.574;55.878;2022-08-20T03:49:59;101456.22;;;18.54;48.55
60089;BME280;45961;53.574;55.878;2022-08-20T03:51:00;101450.03;;;18.68;48.22
60089;BME280;45961;53.574;55.878;2022-08-20T03:52:03;101452.63;;;18.81;48.32
60089;BME280;45961;53.574;55.878;2022-08-20T03:53:04;101451.78;;;18.69;48.28
60089;BME280;45961;53.574;55.878;2022-08-20T03:54:05;101452.69;;;18.59;48.18
60089;BME280;45961;53.574;55.878;2022-08-20T03:55:08;101451.78;;;18.63;47.78
60089;BME280;45961;53.574;55.878;2022-08-20T03:56:09;101451.78;;;18.69;47.93
60089;BME280;45961;53.574;55.878;2022-08-20T03:57:15;101450.94;;;18.66;48.05
60089;BME280;45961;53.574;55.878;2022-08-20T03:58:16;101446.53;;;18.66;48.05
60089;BME280;45961;53.574;55.878;2022-08-20T03:59:17;101450.91;;;18.78;47.91
60089;BME280;45961;53.574;55.878;2022-08-20T04:00:21;101446.56;;;18.71;48.27
60089;BME280;45961;53.574;55.878;2022-08-20T04:01:22;101458.03;;;18.29;48.98
60089;BME280;45961;53.574;55.878;2022-08-20T04:02:24;101426.53;;;18.44;48.65
60089;BME280;45961;53.574;55.878;2022-08-20T04:03:25;101454.47;;;18.48;48.75
60089;BME280;45961;53.574;55.878;2022-08-20T04:04:26;101446.53;;;18.66;48.96
60089;BME280;45961;53.574;55.878;2022-08-20T04:05:29;101450.94;;;18.60;49.46
60089;BME280;45961;53.574;55.878;2022-08-20T04:06:31;101453.50;;;18.69;48.89
60089;BME280;45961;53.574;55.878;2022-08-20T04:07:31;101449.13;;;18.79;49.07
60089;BME280;45961;53.574;55.878;2022-08-20T04:08:32;101444.53;;;19.19;48.16
60089;BME280;45961;53.574;55.878;2022-08-20T04:09:34;101443.50;;;19.38;48.71
60089;BME280;45961;53.574;55.878;2022-08-20T04:10:35;101446.94;;;19.48;47.87
60089;BME280;45961;53.574;55.878;2022-08-20T04:11:40;101448.84;;;19.28;47.86
60089;BME280;45961;53.574;55.878;2022-08-20T04:12:41;101451.47;;;19.24;47.83
60089;BME280;45961;53.574;55.878;2022-08-20T04:13:42;101451.34;;;19.41;47.42
60089;BME280;45961;53.574;55.878;2022-08-20T04:14:43;101451.28;;;19.52;48.03
60089;BME280;45961;53.574;55.878;2022-08-20T04:15:45;101450.34;;;19.64;47.72
60089;BME280;45961;53.574;55.878;2022-08-20T04:16:46;101449.53;;;19.49;48.05
60089;BME280;45961;53.574;55.878;2022-08-20T04:17:48;101442.47;;;19.59;48.03
60089;BME280;45961;53.574;55.878;2022-08-20T04:18:53;101443.31;;;19.60;47.62
60089;BME280;45961;53.574;55.878;2022-08-20T04:19:54;101447.03;;;19.36;47.91
60089;BME280;45961;53.574;55.878;2022-08-20T04:20:55;101446.06;;;19.44;48.25
60089;BME280;45961;53.574;55.878;2022-08-20T04:21:56;101449.72;;;19.25;47.65
60089;BME280;45961;53.574;55.878;2022-08-20T04:22:57;101447.84;;;19.44;48.28
60089;BME280;45961;53.574;55.878;2022-08-20T04:23:58;101455.53;;;19.68;48.73
60089;BME280;45961;53.574;55.878;2022-08-20T04:25:00;101453.88;;;19.55;47.97
60089;BME280;45961;53.574;55.878;2022-08-20T04:26:01;101453.00;;;19.53;48.38
60089;BME280;45961;53.574;55.878;2022-08-20T04:27:02;101451.22;;;19.58;47.76
60089;BME280;45961;53.574;55.878;2022-08-20T04:28:07;101437.16;;;19.68;47.67
60089;BME280;45961;53.574;55.878;2022-08-20T04:29:08;101455.28;;;19.96;47.53
60089;BME280;45961;53.574;55.878;2022-08-20T04:30:11;101444.81;;;19.94;47.95
60089;BME280;45961;53.574;55.878;2022-08-20T04:31:12;101447.31;;;20.07;47.33
60089;BME280;45961;53.574;55.878;2022-08-20T04:32:13;101457.75;;;20.14;47.89
60089;BME280;45961;53.574;55.878;2022-08-20T05:10:04;101436.34;;;19.62;49.71
60089;BME280;45961;53.574;55.878;2022-08-20T05:11:07;101439.88;;;19.55;49.39
60089;BME280;45961;53.574;55.878;2022-08-20T05:12:09;101438.00;;;19.72;49.42
60089;BME280;45961;53.574;55.878;2022-08-20T05:13:10;101439.72;;;19.76;49.16
60089;BME280;45961;53.574;55.878;2022-08-20T05:14:11;101439.72;;;19.73;48.37
60089;BME280;45961;53.574;55.878;2022-08-20T05:15:13;101437.88;;;19.84;48.65
60089;BME280;45961;53.574;55.878;2022-08-20T05:16:14;101444.13;;;19.72;49.26
60089;BME280;45961;53.574;55.878;2022-08-20T05:17:17;101435.19;;;19.92;48.77
60089;BME280;45961;53.574;55.878;2022-08-20T05:18:22;101434.28;;;19.94;48.63
60089;BME280;45961;53.574;55.878;2022-08-20T05:19:23;101434.28;;;19.93;48.17
60089;BME280;45961;53.574;55.878;2022-08-20T05:20:24;101427.09;;;20.09;48.27
60089;BME280;45961;53.574;55.878;2022-08-20T05:21:27;101429.03;;;19.94;48.27
60089;BME280;45961;53.574;55.878;2022-08-20T05:22:27;101423.59;;;20.10;47.89
60089;BME280;45961;53.574;55.878;2022-08-20T05:23:30;101433.25;;;20.11;48.09
60089;BME280;45961;53.574;55.878;2022-08-20T05:24:32;101426.91;;;20.26;48.10
60089;BME280;45961;53.574;55.878;2022-08-20T05:25:33;101426.75;;;20.38;48.04
60089;BME280;45961;53.574;55.878;2022-08-20T05:26:34;101431.78;;;20.62;47.75
60089;BME280;45961;53.574;55.878;2022-08-20T05:27:35;101424.72;;;20.64;47.53
60089;BME280;45961;53.574;55.878;2022-08-20T05:28:38;101421.28;;;20.59;47.67
60089;BME280;45961;53.574;55.878;2022-08-20T05:29:39;101420.25;;;20.71;47.75
60089;BME280;45961;53.574;55.878;2022-08-20T05:30:44;101419.16;;;20.87;47.66
60089;BME280;45961;53.574;55.878;2022-08-20T05:31:45;101421.69;;;20.93;47.08
60089;BME280;45961;53.574;55.878;2022-08-20T05:32:46;101424.28;;;20.97;46.89
60089;BME280;45961;53.574;55.878;2022-08-20T05:33:48;101436.00;;;20.73;47.46
60089;BME280;45961;53.574;55.878;2022-08-20T05:34:51;101426.47;;;20.65;47.58
60089;BME280;45961;53.574;55.878;2022-08-20T05:35:52;101425.41;;;20.77;47.23
60089;BME280;45961;53.574;55.878;2022-08-20T05:36:54;101407.03;;;20.76;46.96
60089;BME280;45961;53.574;55.878;2022-08-20T05:37:55;101423.72;;;20.73;47.22
60089;BME280;45961;53.574;55.878;2022-08-20T05:38:57;101419.91;;;20.94;46.86
60089;BME280;45961;53.574;55.878;2022-08-20T05:39:58;101420.50;;;21.13;46.64
60089;BME280;45961;53.574;55.878;2022-08-20T05:40:59;101420.66;;;21.02;47.08
60089;BME280;45961;53.574;55.878;2022-08-20T05:42:00;101426.00;;;20.98;46.62
60089;BME280;45961;53.574;55.878;2022-08-20T05:43:01;101422.03;;;20.69;46.74
60089;BME280;45961;53.574;55.878;2022-08-20T05:44:06;101415.66;;;20.87;46.99
60089;BME280;45961;53.574;55.878;2022-08-20T05:45:10;101415.41;;;21.02;46.68
60089;BME280;45961;53.574;55.878;2022-08-20T05:46:11;101422.31;;;21.11;47.18
60089;BME280;45961;53.574;55.878;2022-08-20T05:47:16;101421.25;;;21.21;46.62
60089;BME280;45961;53.574;55.878;2022-08-20T05:48:22;101417.13;;;21.05;46.64
60089;BME280;45961;53.574;55.878;2022-08-20T05:49:23;101416.22;;;21.06;46.33
60089;BME280;45961;53.574;55.878;2022-08-20T05:50:24;101412.84;;;20.99;46.17
60089;BME280;45961;53.574;55.878;2022-08-20T05:51:25;101417.13;;;21.05;46.32
60089;BME280;45961;53.574;55.878;2022-08-20T05:52:26;101415.22;;;21.16;46.20
60089;BME280;45961;53.574;55.878;2022-08-20T05:53:29;101412.50;;;21.20;46.36
60089;BME280;45961;53.574;55.878;2022-08-20T05:54:31;101409.78;;;21.25;45.26
60089;BME280;45961;53.574;55.878;2022-08-20T05:55:32;101407.06;;;21.33;45.94
60089;BME280;45961;53.574;55.878;2022-08-20T05:56:33;101402.44;;;21.47;45.55
60089;BME280;45961;53.574;55.878;2022-08-20T05:57:34;101408.00;;;21.27;46.38
60089;BME280;45961;53.574;55.878;2022-08-20T05:58:36;101399.69;;;21.53;45.95
60089;BME280;45961;53.574;55.878;2022-08-20T05:59:37;101394.94;;;21.74;45.93
60089;BME280;45961;53.574;55.878;2022-08-20T06:00:39;101405.28;;;21.83;45.59
60089;BME280;45961;53.574;55.878;2022-08-20T06:01:40;101394.84;;;21.78;44.96
60089;BME280;45961;53.574;55.878;2022-08-20T06:02:42;101397.91;;;22.02;45.05
60089;BME280;45961;53.574;55.878;2022-08-20T06:04:02;101401.72;;;21.39;45.28
60089;BME280;45961;53.574;55.878;2022-08-20T06:05:22;101397.22;;;21.42;45.92
60089;BME280;45961;53.574;55.878;2022-08-20T06:06:23;101393.53;;;21.54;46.13
60089;BME280;45961;53.574;55.878;2022-08-20T06:07:24;101386.78;;;21.86;45.56
60089;BME280;45961;53.574;55.878;2022-08-20T06:08:25;101392.66;;;22.02;45.10
60089;BME280;45961;53.574;55.878;2022-08-20T06:09:26;101398.63;;;22.11;44.59